Disney Magic — C6PT7 — position and weather

sailwx.info

Track history (hours):
 
Tides and Currents Weather Stations Pressure Air Temp Water Temp Dewpoint Dewpoint Depression Visibility Wind Speed Wind Dir Waves Ship Positions

Disney Magic

Last reported at 2017-Oct-18 04:22 UTC. Time now 2017-Oct-19 00:17 UTC.
Position N 27°09' W 079°47'.

Type: Passenger vessel. MMSI: 308516000.

Date/timePositionNaut miles runAvg speedWind from/ knotsBaromVisibWave heightAir tempDewpointWater temp
2017-Oct-18 04:22N 27°09' W 079°47'822.5
2017-Oct-18 04:01N 27°02' W 079°44'  
2017-Oct-15 06:03N 38°51' W 072°37'516.9
2017-Oct-15 05:44N 38°56' W 072°40'1016.7
2017-Oct-15 05:07N 39°05' W 072°46'316.6
2017-Oct-15 04:57N 39°07' W 072°48'3616.9
2017-Oct-15 02:51N 39°40' W 073°06'717.5
2017-Oct-15 02:26N 39°46' W 073°10'817.6
2017-Oct-15 02:00N 39°54' W 073°13'917.3
2017-Oct-15 01:30N 40°01' W 073°20'917.1
2017-Oct-15 01:00N 40°07' W 073°27'816.8
2017-Oct-15 00:30N 40°14' W 073°34'816.8
2017-Oct-15 00:00N 40°20' W 073°41'815.8
2017-Oct-14 23:30N 40°26' W 073°48'612.8
2017-Oct-14 23:00N 40°29' W 073°55'815.6
2017-Oct-14 22:30N 40°35' W 074°02'611.5
2017-Oct-14 22:00N 40°41' W 074°02'5 9.1
2017-Oct-14 21:30N 40°45' W 074°01'1 2.0
2017-Oct-14 21:00N 40°46' W 073°60'0 0.0
2017-Oct-14 20:30N 40°46' W 073°60'0 0.0
2017-Oct-14 20:00N 40°46' W 073°60'0 0.0
2017-Oct-14 19:30N 40°46' W 073°60'0 0.0
2017-Oct-14 19:00N 40°46' W 073°60'0 0.0
2017-Oct-14 18:30N 40°46' W 073°60'0 0.0
2017-Oct-14 18:00N 40°46' W 073°60'0 0.0
2017-Oct-14 17:30N 40°46' W 073°60'0 0.0
2017-Oct-14 17:00N 40°46' W 073°60'0 0.0
2017-Oct-14 16:30N 40°46' W 073°60'0 0.0
2017-Oct-14 16:00N 40°46' W 073°60'0 0.0
2017-Oct-14 15:30N 40°46' W 073°60'0 0.0
2017-Oct-14 15:00N 40°46' W 073°60'0 0.0
2017-Oct-14 14:30N 40°46' W 073°60'0 0.0
2017-Oct-14 14:00N 40°46' W 073°60'0 0.0
2017-Oct-14 13:24N 40°46' W 073°60'0 0.0
2017-Oct-14 13:00N 40°46' W 073°60'0 0.0
2017-Oct-14 12:30N 40°46' W 073°60'0 0.0
2017-Oct-14 12:00N 40°46' W 073°60'0 0.0
2017-Oct-14 11:30N 40°46' W 073°60'0 0.0
2017-Oct-14 11:00N 40°46' W 073°60'0 0.0
2017-Oct-14 10:27N 40°46' W 073°60'0 0.0
2017-Oct-14 10:00N 40°46' W 073°60'1 1.9
2017-Oct-14 09:30N 40°45' W 074°01'510.6
2017-Oct-14 09:00N 40°40' W 074°03'713.2
2017-Oct-14 08:30N 40°34' W 074°02'713.9
2017-Oct-14 08:00N 40°29' W 073°55'612.6
2017-Oct-14 07:30N 40°26' W 073°47'4 8.5
2017-Oct-14 07:01N 40°22' W 073°47'2814.1
2017-Oct-14 05:00N 39°54' W 073°43'715.0
2017-Oct-14 04:30N 39°46' W 073°43'714.9
2017-Oct-14 04:00N 39°39' W 073°44'814.8
2017-Oct-14 03:29N 39°31' W 073°46'52216.4
2017-Oct-12 19:42N 31°27' W 077°44'1820.1
2017-Oct-12 18:49N 31°12' W 077°56'1220.2
2017-Oct-12 18:12N 31°02' W 078°04'  
Track history (hours):
 
Tides and Currents Weather Stations Pressure Air Temp Water Temp Dewpoint Dewpoint Depression Visibility Wind Speed Wind Dir Waves Ship Positions

Disney Magic

Last reported at 2017-Oct-18 04:22 UTC. Time now 2017-Oct-19 00:17 UTC.
Position N 27°09' W 079°47'.

Type: Passenger vessel. MMSI: 308516000.

Date/timePositionNaut miles runAvg speedWind from/ knotsBaromVisibWave heightAir tempDewpointWater temp
2017-Oct-18 04:22N 27°09' W 079°47'822.5
2017-Oct-18 04:01N 27°02' W 079°44'  
2017-Oct-15 06:03N 38°51' W 072°37'516.9
2017-Oct-15 05:44N 38°56' W 072°40'1016.7
2017-Oct-15 05:07N 39°05' W 072°46'316.6
2017-Oct-15 04:57N 39°07' W 072°48'3616.9
2017-Oct-15 02:51N 39°40' W 073°06'717.5
2017-Oct-15 02:26N 39°46' W 073°10'817.6
2017-Oct-15 02:00N 39°54' W 073°13'917.3
2017-Oct-15 01:30N 40°01' W 073°20'917.1
2017-Oct-15 01:00N 40°07' W 073°27'816.8
2017-Oct-15 00:30N 40°14' W 073°34'816.8
2017-Oct-15 00:00N 40°20' W 073°41'815.8
2017-Oct-14 23:30N 40°26' W 073°48'612.8
2017-Oct-14 23:00N 40°29' W 073°55'815.6
2017-Oct-14 22:30N 40°35' W 074°02'611.5
2017-Oct-14 22:00N 40°41' W 074°02'5 9.1
2017-Oct-14 21:30N 40°45' W 074°01'1 2.0
2017-Oct-14 21:00N 40°46' W 073°60'0 0.0
2017-Oct-14 20:30N 40°46' W 073°60'0 0.0
2017-Oct-14 20:00N 40°46' W 073°60'0 0.0
2017-Oct-14 19:30N 40°46' W 073°60'0 0.0
2017-Oct-14 19:00N 40°46' W 073°60'0 0.0
2017-Oct-14 18:30N 40°46' W 073°60'0 0.0
2017-Oct-14 18:00N 40°46' W 073°60'0 0.0
2017-Oct-14 17:30N 40°46' W 073°60'0 0.0
2017-Oct-14 17:00N 40°46' W 073°60'0 0.0
2017-Oct-14 16:30N 40°46' W 073°60'0 0.0
2017-Oct-14 16:00N 40°46' W 073°60'0 0.0
2017-Oct-14 15:30N 40°46' W 073°60'0 0.0
2017-Oct-14 15:00N 40°46' W 073°60'0 0.0
2017-Oct-14 14:30N 40°46' W 073°60'0 0.0
2017-Oct-14 14:00N 40°46' W 073°60'0 0.0
2017-Oct-14 13:24N 40°46' W 073°60'0 0.0
2017-Oct-14 13:00N 40°46' W 073°60'0 0.0
2017-Oct-14 12:30N 40°46' W 073°60'0 0.0
2017-Oct-14 12:00N 40°46' W 073°60'0 0.0
2017-Oct-14 11:30N 40°46' W 073°60'0 0.0
2017-Oct-14 11:00N 40°46' W 073°60'0 0.0
2017-Oct-14 10:27N 40°46' W 073°60'0 0.0
2017-Oct-14 10:00N 40°46' W 073°60'1 1.9
2017-Oct-14 09:30N 40°45' W 074°01'510.6
2017-Oct-14 09:00N 40°40' W 074°03'713.2
2017-Oct-14 08:30N 40°34' W 074°02'713.9
2017-Oct-14 08:00N 40°29' W 073°55'612.6
2017-Oct-14 07:30N 40°26' W 073°47'4 8.5
2017-Oct-14 07:01N 40°22' W 073°47'2814.1
2017-Oct-14 05:00N 39°54' W 073°43'715.0
2017-Oct-14 04:30N 39°46' W 073°43'714.9
2017-Oct-14 04:00N 39°39' W 073°44'814.8
2017-Oct-14 03:29N 39°31' W 073°46'52216.4
2017-Oct-12 19:42N 31°27' W 077°44'1820.1
2017-Oct-12 18:49N 31°12' W 077°56'1220.2
2017-Oct-12 18:12N 31°02' W 078°04'  

Dump ship's entire track history